This is the latest recevied weather packets stored in our database for station/object PA3CPS. If no packets are shown the sender has not sent any weather packets the latest 10 day(s).
| Time | Temp. | Humidity | Pressure | Rain* | Wind** | Luminosity | Snow |
|---|---|---|---|---|---|---|---|
| 1777460914 | 17.78° C | 40% | 1027.1 hPa | 0 mm | - | 865 W/m² | - |
| 1777460612 | 17.22° C | 37% | 1027.2 hPa | 0 mm | - | 853 W/m² | - |
| 1777460313 | 17.22° C | 38% | 1027.2 hPa | 0 mm | - | 856 W/m² | - |
| 1777460013 | 17.22° C | 39% | 1027.1 hPa | 0 mm | - | 856 W/m² | - |
| 1777459712 | 17.22° C | 39% | 1027.2 hPa | 0 mm | - | 853 W/m² | - |
| 1777459413 | 17.22° C | 39% | 1027.2 hPa | 0 mm | - | 847 W/m² | - |
| 1777459113 | 16.67° C | 41% | 1027.2 hPa | 0 mm | - | 844 W/m² | - |
| 1777458813 | 17.22° C | 37% | 1027.2 hPa | 0 mm | - | 838 W/m² | - |
| 1777458513 | 16.67° C | 39% | 1027.2 hPa | 0 mm | - | 833 W/m² | - |
| 1777458213 | 17.22° C | 38% | 1027.3 hPa | 0 mm | - | 833 W/m² | - |
| 1777457912 | 16.67° C | 40% | 1027.3 hPa | 0 mm | - | 821 W/m² | - |
| 1777457613 | 17.22° C | 38% | 1027.3 hPa | 0 mm | - | 821 W/m² | - |
| 1777457311 | 16.67° C | 38% | 1027.2 hPa | 0 mm | - | 814 W/m² | - |
| 1777457010 | 16.67° C | 40% | 1027.1 hPa | 0 mm | - | 812 W/m² | - |
| 1777456709 | 16.11° C | 38% | 1027.3 hPa | 0 mm | - | 793 W/m² | - |
| 1777456404 | 16.67° C | 40% | 1027.3 hPa | 0 mm | - | 795 W/m² | - |
| 1777456102 | 16.11° C | 41% | 1027.4 hPa | 0 mm | - | 788 W/m² | - |
| 1777455800 | 16.11° C | 40% | 1027.4 hPa | 0 mm | - | 779 W/m² | - |
| 1777455499 | 16.11° C | 41% | 1027.4 hPa | 0 mm | - | 772 W/m² | - |
| 1777455199 | 16.11° C | 41% | 1027.4 hPa | 0 mm | - | 754 W/m² | - |
| 1777454897 | 16.11° C | 42% | 1027.4 hPa | 0 mm | - | 749 W/m² | - |
| 1777454595 | 15.56° C | 42% | 1027.5 hPa | 0 mm | - | 729 W/m² | - |
| 1777454293 | 15.56° C | 43% | 1027.5 hPa | 0 mm | - | 715 W/m² | - |
| 1777453992 | 15.56° C | 42% | 1027.6 hPa | 0 mm | - | 719 W/m² | - |
| 1777453690 | 15.56° C | 46% | 1027.5 hPa | 0 mm | - | 670 W/m² | - |
* Rain latest hour (hover to see other rain measurements)
** Current wind speed in m/s (hover to see current wind gust speed)